Terminal Aerodrome Forecast
Issued by NWS

Home | Current Version | Previous Version | Graphics & Text | Print | Product List | Glossary On
Versions: 1 2 3 4 5 6 7 8 9 10 11 12 13 14 15
000
FTUS43 KICT 210522
TAFSLN
TAF
KSLN 210522Z 2106/2206 18024G32KT P6SM BKN090
     FM211100 18021G29KT P6SM BKN035
     FM211500 19017G25KT P6SM BKN015
     FM211800 21017G25KT P6SM SHRA VCTS BKN025CB
     FM220000 34011G19KT P6SM BKN100=

USA.gov is the U.S. government's official web portal to all federal, state and local government web resources and services.